Time;durP1;ratioP1;P1;durP2;ratioP2;P2;SDS_P1;SDS_P2;PMS_P1;PMS_P2;Temp;Humidity;BMP_temperature;BMP_pressure;BME280_temperature;BME280_humidity;BME280_pressure;Samples;Min_cycle;Max_cycle;Signal;HPM_P1;HPM_P2
2022/07/20 00:01:16;;;;;;;13.27;4.80;;;;;;;19.44;100.00;99328.69;4386702;32;20034;-70
2022/07/20 00:03:45;;;;;;;12.10;4.80;;;;;;;19.15;100.00;99292.34;4386884;32;20065;-70
2022/07/20 00:06:13;;;;;;;9.73;5.10;;;;;;;19.07;100.00;99284.84;4384291;32;20078;-70
2022/07/20 00:11:25;;;;;;;17.75;4.95;;;;;;;19.05;100.00;99289.78;4386194;32;20063;-71
2022/07/20 00:14:00;;;;;;;16.08;4.45;;;;;;;19.23;100.00;99321.69;4385206;32;20064;-72
2022/07/20 00:16:29;;;;;;;10.90;4.82;;;;;;;19.27;100.00;99327.34;4386904;32;20030;-70
2022/07/20 00:18:55;;;;;;;9.40;5.03;;;;;;;18.97;100.00;99285.03;4386990;32;20035;-72
2022/07/20 00:21:22;;;;;;;10.55;4.35;;;;;;;18.85;100.00;99278.13;4385480;32;20071;-70
2022/07/20 00:23:50;;;;;;;13.90;5.18;;;;;;;19.06;100.00;99316.78;4385489;32;20069;-70
2022/07/20 00:26:16;;;;;;;8.80;4.68;;;;;;;19.03;100.00;99300.19;4385569;32;20055;-70
2022/07/20 00:28:42;;;;;;;7.90;4.22;;;;;;;19.01;100.00;99307.87;4386296;32;20038;-70
2022/07/20 00:31:09;;;;;;;6.80;3.90;;;;;;;19.12;100.00;99320.25;4385332;32;20051;-69
2022/07/20 00:33:36;;;;;;;15.50;5.10;;;;;;;19.09;100.00;99320.84;4385899;32;20049;-70
2022/07/20 00:36:03;;;;;;;6.40;4.30;;;;;;;18.96;100.00;99291.59;4383868;32;20082;-71
2022/07/20 00:38:30;;;;;;;11.40;4.78;;;;;;;19.03;100.00;99300.19;4384738;32;20067;-71
2022/07/20 00:40:56;;;;;;;10.32;4.32;;;;;;;18.84;100.00;99271.06;4386751;32;20065;-71
2022/07/20 00:43:22;;;;;;;15.73;4.60;;;;;;;19.16;100.00;99309.53;4386116;32;20039;-70
2022/07/20 00:45:49;;;;;;;13.05;5.75;;;;;;;18.97;100.00;99279.56;4386429;32;20032;-71
2022/07/20 00:48:16;;;;;;;18.25;8.27;;;;;;;19.09;100.00;99304.47;4383298;32;20387;-71
2022/07/20 00:50:42;;;;;;;14.45;5.87;;;;;;;18.93;100.00;99284.00;4386405;32;20201;-70
2022/07/20 00:53:09;;;;;;;8.70;4.20;;;;;;;19.16;100.00;99321.28;4386056;32;20436;-70
2022/07/20 00:55:36;;;;;;;9.50;5.05;;;;;;;19.10;100.00;99322.47;4386214;32;20333;-70
2022/07/20 00:58:02;;;;;;;7.53;4.30;;;;;;;18.66;100.00;99258.22;4385998;32;20148;-70
2022/07/20 01:00:35;;;;;;;7.18;4.00;;;;;;;18.76;100.00;99273.62;4384637;32;20566;-70
2022/07/20 01:03:01;;;;;;;7.97;5.07;;;;;;;19.14;100.00;99323.47;4386154;32;20087;-70
2022/07/20 01:05:28;;;;;;;5.72;4.25;;;;;;;19.07;100.00;99331.25;4386162;32;20065;-70
2022/07/20 01:07:54;;;;;;;4.93;3.60;;;;;;;19.09;100.00;99326.28;4385947;32;20397;-70
2022/07/20 01:10:21;;;;;;;4.90;3.80;;;;;;;18.87;100.00;99286.84;4384353;32;20032;-72
2022/07/20 01:12:48;;;;;;;6.50;4.47;;;;;;;19.05;100.00;99330.72;4386477;32;20088;-70
2022/07/20 01:15:16;;;;;;;11.18;4.28;;;;;;;18.86;100.00;99323.41;4389074;32;20399;-70
2022/07/20 01:17:43;;;;;;;7.68;3.78;;;;;;;18.76;100.00;99285.31;4389001;32;20032;-70
2022/07/20 01:20:14;;;;;;;8.05;4.22;;;;;;;18.91;100.00;99335.31;4388861;32;20053;-71
2022/07/20 01:22:43;;;;;;;5.43;3.15;;;;;;;18.22;100.00;99232.19;4386098;32;20051;-70
2022/07/20 01:25:09;;;;;;;15.63;4.40;;;;;;;18.82;100.00;99332.44;4388764;32;20082;-70
2022/07/20 01:27:35;;;;;;;7.72;3.37;;;;;;;18.74;100.00;99325.72;4388579;32;20482;-71
2022/07/20 01:30:03;;;;;;;7.90;4.07;;;;;;;18.54;100.00;99299.59;4387619;32;20038;-72
2022/07/20 01:32:29;;;;;;;8.23;4.47;;;;;;;18.42;100.00;99275.50;4387380;32;20076;-71
2022/07/20 01:34:56;;;;;;;9.93;3.75;;;;;;;18.71;100.00;99299.03;4388742;32;20140;-70
2022/07/20 01:37:22;;;;;;;7.37;3.50;;;;;;;18.65;100.00;99294.78;4375299;32;20049;-70
2022/07/20 01:39:49;;;;;;;11.95;3.50;;;;;;;18.85;100.00;99321.75;4388760;32;20043;-71
2022/07/20 01:42:15;;;;;;;5.35;4.10;;;;;;;18.86;100.00;99317.94;4386705;32;20061;-71
2022/07/20 01:44:41;;;;;;;9.48;3.58;;;;;;;18.80;100.00;99316.38;4386534;32;20495;-70
2022/07/20 01:47:08;;;;;;;7.47;4.03;;;;;;;18.90;100.00;99328.25;4388522;32;20342;-70
2022/07/20 01:49:34;;;;;;;5.65;3.58;;;;;;;18.93;100.00;99327.66;4388531;32;20032;-70
2022/07/20 01:52:01;;;;;;;11.57;3.75;;;;;;;18.94;100.00;99329.25;4388631;32;20380;-71
2022/07/20 01:54:27;;;;;;;14.38;4.05;;;;;;;18.96;100.00;99327.88;4387282;32;20054;-72
2022/07/20 01:56:59;;;;;;;6.62;3.85;;;;;;;18.97;100.00;99323.22;4388113;32;20081;-71
2022/07/20 01:59:26;;;;;;;6.90;3.75;;;;;;;19.03;100.00;99324.75;4388508;32;20462;-70
2022/07/20 02:01:52;;;;;;;9.95;3.47;;;;;;;19.00;100.00;99317.16;4375110;32;20415;-71
2022/07/20 02:04:19;;;;;;;4.68;3.45;;;;;;;19.10;100.00;99318.91;4374905;32;20444;-70
2022/07/20 02:06:46;;;;;;;4.60;3.72;;;;;;;19.14;100.00;99318.00;4386657;32;20064;-70
2022/07/20 02:09:12;;;;;;;5.78;3.37;;;;;;;19.23;100.00;99309.97;4374474;32;20468;-71
2022/07/20 02:11:38;;;;;;;6.97;3.50;;;;;;;19.03;100.00;99278.38;4387829;32;20073;-70
2022/07/20 02:14:05;;;;;;;3.87;3.33;;;;;;;19.37;100.00;99313.53;4388211;32;20059;-70
2022/07/20 02:16:31;;;;;;;3.67;3.35;;;;;;;19.24;100.00;99276.91;4386095;32;20065;-70
2022/07/20 02:18:57;;;;;;;5.03;4.00;;;;;;;19.53;100.00;99319.50;4388172;32;20055;-71
2022/07/20 02:21:24;;;;;;;4.78;3.15;;;;;;;19.65;100.00;99304.53;4388098;32;20053;-71
2022/07/20 02:23:51;;;;;;;12.18;3.05;;;;;;;19.70;100.00;99307.16;4387385;32;20023;-70
2022/07/20 02:26:18;;;;;;;4.68;3.47;;;;;;;19.45;100.00;99251.12;4386939;32;20462;-72
2022/07/20 02:28:45;;;;;;;4.68;4.03;;;;;;;19.43;100.00;99267.81;4387366;32;20087;-71
2022/07/20 02:31:12;;;;;;;5.50;3.65;;;;;;;19.60;100.00;99273.47;4387675;32;20074;-70
2022/07/20 02:33:38;;;;;;;9.15;3.75;;;;;;;19.89;100.00;99315.28;4387842;32;20043;-71
2022/07/20 02:36:05;;;;;;;6.03;3.37;;;;;;;19.83;100.00;99309.09;4383665;32;20040;-73
2022/07/20 02:38:32;;;;;;;7.22;3.30;;;;;;;19.68;100.00;99284.81;4387426;32;20088;-72
2022/07/20 02:40:58;;;;;;;7.47;3.65;;;;;;;19.84;100.00;99324.41;4388138;32;20117;-71
2022/07/20 02:43:24;;;;;;;7.28;3.78;;;;;;;19.62;100.00;99289.56;4387602;32;20050;-71
2022/07/20 02:45:51;;;;;;;11.82;3.80;;;;;;;19.67;100.00;99283.19;4387871;32;20065;-71
2022/07/20 02:48:17;;;;;;;8.32;4.47;;;;;;;19.73;100.00;99301.09;4370897;32;20393;-72
2022/07/20 02:50:44;;;;;;;8.52;4.25;;;;;;;19.95;100.00;99331.28;4386711;32;20073;-72
2022/07/20 02:53:11;;;;;;;8.80;5.35;;;;;;;19.67;100.00;99285.91;4387489;32;20053;-70
2022/07/20 02:55:39;;;;;;;5.57;3.92;;;;;;;19.79;100.00;99308.09;4386231;32;20057;-72
2022/07/20 02:58:06;;;;;;;12.50;4.28;;;;;;;19.34;100.00;99229.50;4387314;32;20409;-72
2022/07/20 03:00:33;;;;;;;8.23;3.78;;;;;;;20.07;100.00;99343.59;4386031;32;20446;-71
2022/07/20 03:03:00;;;;;;;10.77;4.35;;;;;;;19.51;100.00;99278.00;4387770;32;20922;-71
2022/07/20 03:05:26;;;;;;;6.57;4.12;;;;;;;19.49;100.00;99252.94;4387799;32;20031;-71
2022/07/20 03:07:53;;;;;;;6.45;4.45;;;;;;;19.74;100.00;99280.88;4387744;32;20118;-71
2022/07/20 03:10:19;;;;;;;5.78;4.37;;;;;;;20.17;100.00;99346.13;4385709;32;20053;-72
2022/07/20 03:12:46;;;;;;;11.90;5.70;;;;;;;20.27;100.00;99348.66;4385029;32;20984;-71
2022/07/20 03:15:12;;;;;;;11.45;4.15;;;;;;;20.31;100.00;99360.59;4387462;32;20034;-71
2022/07/20 03:17:43;;;;;;;7.97;4.03;;;;;;;20.45;100.00;99359.75;4387408;32;20124;-71
2022/07/20 03:20:12;;;;;;;9.27;3.70;;;;;;;20.53;100.00;99353.56;4385208;32;20035;-72
2022/07/20 03:22:40;;;;;;;5.53;3.70;;;;;;;20.60;100.00;99362.16;4386887;32;20076;-71
2022/07/20 03:25:07;;;;;;;6.07;4.05;;;;;;;19.99;100.00;99259.59;4387415;32;20398;-71
2022/07/20 03:27:34;;;;;;;8.00;3.67;;;;;;;20.45;100.00;99316.00;4385649;32;20056;-72
2022/07/20 03:30:01;;;;;;;4.57;3.58;;;;;;;20.45;100.00;99318.72;4384937;32;20442;-72
2022/07/20 03:32:34;;;;;;;6.62;4.30;;;;;;;20.91;100.00;99350.50;4386120;32;20072;-71
2022/07/20 03:35:00;;;;;;;6.03;4.70;;;;;;;21.10;100.00;99357.75;4386615;32;20043;-71
2022/07/20 03:37:27;;;;;;;4.65;3.30;;;;;;;20.89;100.00;99325.41;4386828;32;20035;-71
2022/07/20 03:39:53;;;;;;;10.75;4.28;;;;;;;20.90;100.00;99327.03;4387216;32;20023;-70
2022/07/20 03:42:20;;;;;;;4.85;3.65;;;;;;;21.10;100.00;99358.53;4384862;32;20061;-71
2022/07/20 03:44:46;;;;;;;5.78;3.85;;;;;;;21.08;100.00;99354.47;4386743;32;20086;-71
2022/07/20 03:47:13;;;;;;;7.10;3.95;;;;;;;21.13;100.00;99370.81;4372846;32;20088;-72
2022/07/20 03:49:40;;;;;;;7.07;4.35;;;;;;;21.15;100.00;99376.78;4386042;32;20075;-72
2022/07/20 03:52:06;;;;;;;5.85;3.83;;;;;;;21.18;100.00;99365.19;4386878;32;20031;-71
2022/07/20 03:54:32;;;;;;;7.00;3.80;;;;;;;20.98;100.00;99350.06;4384925;32;20419;-72
2022/07/20 03:56:59;;;;;;;6.87;3.75;;;;;;;21.00;100.00;99359.59;4384807;32;20400;-71
2022/07/20 03:59:26;;;;;;;7.47;5.43;;;;;;;20.86;100.00;99320.53;4386866;32;20055;-71
2022/07/20 04:01:52;;;;;;;5.30;3.95;;;;;;;21.11;100.00;99329.22;4386791;32;20116;-72
2022/07/20 04:04:19;;;;;;;10.65;3.80;;;;;;;21.39;100.00;99371.75;4371900;32;20061;-72
2022/07/20 04:06:45;;;;;;;6.40;3.72;;;;;;;21.36;100.00;99375.16;4386763;32;20060;-70
2022/07/20 04:09:11;;;;;;;4.90;3.55;;;;;;;21.42;100.00;99371.13;4387158;32;20434;-71
2022/07/20 04:11:38;;;;;;;7.30;4.00;;;;;;;21.04;100.00;99311.34;4386360;32;20047;-71
2022/07/20 04:14:04;;;;;;;15.10;4.12;;;;;;;21.54;100.00;99381.56;4385793;32;20042;-71
2022/07/20 04:16:30;;;;;;;6.43;3.78;;;;;;;21.50;100.00;99377.03;4369901;32;20057;-71
2022/07/20 04:18:57;;;;;;;7.37;3.97;;;;;;;21.64;100.00;99385.97;4386673;32;20840;-71
2022/07/20 04:21:23;;;;;;;5.10;4.18;;;;;;;21.47;100.00;99344.75;4386662;32;20346;-71
2022/07/20 04:23:49;;;;;;;5.85;3.90;;;;;;;21.64;100.00;99363.25;4386571;32;20128;-71
2022/07/20 04:26:16;;;;;;;8.07;4.72;;;;;;;21.73;100.00;99386.81;4384168;32;20354;-72
2022/07/20 04:28:43;;;;;;;7.70;3.92;;;;;;;21.84;100.00;99381.03;4384230;32;20164;-71
2022/07/20 04:31:09;;;;;;;6.15;3.83;;;;;;;21.91;100.00;99389.63;4385859;32;20036;-71
2022/07/20 04:33:35;;;;;;;9.13;4.62;;;;;;;21.70;100.00;99354.56;4386482;32;20042;-71
2022/07/20 04:36:02;;;;;;;5.80;3.97;;;;;;;21.68;100.00;99351.31;4386497;32;20028;-72
2022/07/20 04:38:28;;;;;;;4.43;3.78;;;;;;;22.12;100.00;99387.91;4384615;32;20396;-73
2022/07/20 04:40:55;;;;;;;7.47;4.30;;;;;;;21.90;100.00;99347.69;4386157;32;20069;-71
2022/07/20 04:43:23;;;;;;;7.05;4.57;;;;;;;21.88;100.00;99346.41;4386139;32;20391;-72
2022/07/20 04:45:49;;;;;;;13.13;4.20;;;;;;;22.27;100.00;99383.13;4386409;32;20380;-71
2022/07/20 04:48:16;;;;;;;8.38;3.67;;;;;;;22.13;100.00;99356.62;4387577;32;20065;-72
2022/07/20 04:50:42;;;;;;;5.97;3.42;;;;;;;22.44;100.00;99394.16;4387565;32;20027;-72
2022/07/20 04:53:08;;;;;;;4.70;3.92;;;;;;;22.39;100.00;99380.59;4389797;32;20068;-72
2022/07/20 04:55:35;;;;;;;8.02;4.07;;;;;;;22.44;100.00;99363.97;4388815;32;20054;-72
2022/07/20 04:58:01;;;;;;;5.07;3.53;;;;;;;22.62;100.00;99388.69;4389148;32;20035;-72
2022/07/20 05:00:27;;;;;;;7.18;4.22;;;;;;;22.65;100.00;99383.34;4374168;32;20540;-71
2022/07/20 05:02:54;;;;;;;4.65;3.75;;;;;;;22.46;100.00;99397.38;4386908;32;20425;-71
2022/07/20 05:05:20;;;;;;;9.70;4.10;;;;;;;22.62;100.00;99386.75;4389269;32;20342;-71
2022/07/20 05:07:46;;;;;;;7.40;4.07;;;;;;;22.80;100.00;99398.56;4389279;32;20049;-70
2022/07/20 05:10:13;;;;;;;6.70;3.65;;;;;;;22.65;100.00;99349.62;4388791;32;20451;-72
2022/07/20 05:12:39;;;;;;;7.03;3.92;;;;;;;22.99;100.00;99372.69;4387387;32;20068;-71
2022/07/20 05:15:06;;;;;;;10.48;4.18;;;;;;;23.00;100.00;99377.06;4389381;32;20051;-71
2022/07/20 05:17:33;;;;;;;7.45;3.80;;;;;;;23.14;100.00;99407.94;4389099;32;20100;-70
2022/07/20 05:19:59;;;;;;;13.27;5.28;;;;;;;23.28;100.00;99409.69;4388645;32;20372;-71
2022/07/20 05:22:25;;;;;;;10.30;3.85;;;;;;;23.36;100.00;99406.16;4388988;32;20424;-71
2022/07/20 05:24:52;;;;;;;5.20;4.22;;;;;;;23.36;100.00;99384.97;4386313;32;20061;-71
2022/07/20 05:27:18;;;;;;;5.05;4.00;;;;;;;23.45;100.00;99376.69;4388682;32;20093;-72
2022/07/20 05:29:44;;;;;;;4.85;3.62;;;;;;;23.28;100.00;99354.75;4387497;32;20109;-71
2022/07/20 05:32:11;;;;;;;14.68;3.72;;;;;;;23.66;100.00;99409.81;4383908;32;20039;-71
2022/07/20 05:34:37;;;;;;;4.85;3.62;;;;;;;23.74;100.00;99427.38;4386738;32;20043;-73
2022/07/20 05:37:03;;;;;;;10.48;3.53;;;;;;;23.76;100.00;99414.13;4387246;32;20472;-73
2022/07/20 05:39:30;;;;;;;4.72;3.28;;;;;;;23.63;100.00;99393.97;4361903;32;20069;-73
2022/07/20 05:41:56;;;;;;;8.25;3.20;;;;;;;23.65;100.00;99385.38;4372068;32;20065;-72
2022/07/20 05:44:23;;;;;;;8.15;3.08;;;;;;;23.96;100.00;99428.31;4359130;32;20108;-72
2022/07/20 05:46:49;;;;;;;13.35;3.60;;;;;;;23.94;100.00;99423.94;4366737;32;20101;-73
2022/07/20 05:49:16;;;;;;;5.80;3.70;;;;;;;23.82;100.00;99401.81;4388796;32;20759;-72
2022/07/20 05:51:42;;;;;;;7.85;3.95;;;;;;;23.84;100.00;99404.28;4374962;32;20052;-72
2022/07/20 05:54:09;;;;;;;6.53;3.30;;;;;;;24.01;100.00;99398.69;4387933;32;20052;-73
2022/07/20 05:56:35;;;;;;;9.18;3.08;;;;;;;23.89;100.00;99395.84;4387795;32;20059;-72
2022/07/20 05:59:01;;;;;;;8.75;3.78;;;;;;;23.93;100.00;99413.28;4385816;32;20065;-72
2022/07/20 06:01:28;;;;;;;7.10;3.70;;;;;;;24.18;100.00;99441.81;4374856;32;20403;-73
2022/07/20 06:03:55;;;;;;;6.32;3.60;;;;;;;24.19;100.00;99437.94;4383821;32;20085;-72
2022/07/20 06:06:21;;;;;;;6.50;4.03;;;;;;;24.05;100.00;99404.34;4381972;32;20064;-74
2022/07/20 06:08:48;;;;;;;4.22;3.17;;;;;;;24.16;100.00;99405.59;4384894;32;20036;-73
2022/07/20 06:11:14;;;;;;;8.98;3.67;;;;;;;24.32;100.00;99410.50;4388019;32;20467;-72
2022/07/20 06:13:40;;;;;;;11.65;3.37;;;;;;;24.70;100.00;99435.25;4384683;32;20038;-72
2022/07/20 06:16:07;;;;;;;5.35;3.58;;;;;;;24.21;100.00;99344.87;4385538;32;20057;-73
2022/07/20 06:18:34;;;;;;;16.30;3.33;;;;;;;24.84;100.00;99418.44;4386089;32;20396;-77
2022/07/20 06:21:00;;;;;;;12.98;3.53;;;;;;;24.97;100.00;99452.34;4387136;32;20461;-73
2022/07/20 06:23:26;;;;;;;11.23;4.18;;;;;;;24.99;100.00;99415.09;4387843;32;20055;-74
2022/07/20 06:25:53;;;;;;;19.50;4.47;;;;;;;25.06;100.00;99441.28;4388128;32;20094;-73
2022/07/20 06:28:19;;;;;;;15.77;5.57;;;;;;;25.16;100.00;99443.63;4374661;32;20043;-74
2022/07/20 06:30:45;;;;;;;7.57;3.80;;;;;;;24.89;100.00;99407.25;4371962;32;20043;-79
2022/07/20 06:33:12;;;;;;;10.18;3.42;;;;;;;25.16;100.00;99446.38;4383135;32;20055;-72
2022/07/20 06:35:39;;;;;;;5.90;3.35;;;;;;;24.98;100.00;99418.19;4387869;32;20073;-72
2022/07/20 06:38:05;;;;;;;6.72;3.40;;;;;;;25.27;100.00;99442.06;4387464;32;20039;-74
2022/07/20 06:40:32;;;;;;;4.97;3.50;;;;;;;25.04;100.00;99421.53;4387491;32;20401;-74
2022/07/20 06:42:58;;;;;;;9.82;3.30;;;;;;;24.90;100.00;99377.75;4384094;32;20396;-73
2022/07/20 06:45:24;;;;;;;12.07;4.22;;;;;;;25.20;100.00;99448.12;4387712;32;20051;-73
2022/07/20 06:47:51;;;;;;;8.77;3.22;;;;;;;25.32;100.00;99452.94;4385048;32;20051;-74
2022/07/20 06:50:17;;;;;;;19.12;4.20;;;;;;;25.46;100.00;99457.34;4387363;32;20318;-85
2022/07/20 06:52:44;;;;;;;12.27;9.02;;;;;;;25.45;100.00;99430.91;4386270;32;20100;-76
2022/07/20 06:55:11;;;;;;;14.68;4.95;;;;;;;25.62;100.00;99419.69;4383785;32;20067;-72
2022/07/20 06:57:37;;;;;;;13.73;7.70;;;;;;;25.57;100.00;99425.44;4387179;32;20609;-73
2022/07/20 07:00:11;;;;;;;12.75;4.82;;;;;;;25.74;100.00;99461.09;4386228;32;20101;-73
2022/07/20 07:02:39;;;;;;;20.00;7.53;;;;;;;25.58;100.00;99427.06;4385573;32;20048;-73
2022/07/20 07:05:06;;;;;;;11.60;5.05;;;;;;;25.49;100.00;99420.81;4384472;32;20038;-73
2022/07/20 07:07:32;;;;;;;12.70;4.20;;;;;;;25.47;100.00;99417.59;4373072;32;20031;-73
2022/07/20 07:09:59;;;;;;;5.57;3.70;;;;;;;25.60;100.00;99449.56;4385816;32;20084;-73
2022/07/20 07:12:25;;;;;;;22.98;4.12;;;;;;;25.42;100.00;99426.06;4386651;32;20384;-73
2022/07/20 07:14:51;;;;;;;10.82;3.80;;;;;;;25.78;100.00;99450.19;4369331;32;20027;-73
2022/07/20 07:17:18;;;;;;;12.77;3.45;;;;;;;25.80;100.00;99427.78;4381838;32;20077;-74
2022/07/20 07:19:44;;;;;;;14.60;3.22;;;;;;;26.14;100.00;99450.63;4385146;32;20969;-72
2022/07/20 07:22:11;;;;;;;6.05;3.40;;;;;;;25.91;100.00;99420.66;4386071;32;20380;-73
2022/07/20 07:24:37;;;;;;;5.97;2.90;;;;;;;25.80;100.00;99425.84;4372515;32;20035;-72
2022/07/20 07:27:04;;;;;;;12.60;3.50;;;;;;;25.69;99.72;99414.44;4384428;32;20100;-77
2022/07/20 07:29:30;;;;;;;8.32;3.30;;;;;;;26.10;97.80;99459.59;4384601;32;20072;-73
2022/07/20 07:31:58;;;;;;;5.85;3.20;;;;;;;25.93;93.94;99429.41;4380333;32;20063;-73
2022/07/20 07:34:26;;;;;;;7.97;3.15;;;;;;;26.10;92.84;99420.97;4385234;32;20069;-74
2022/07/20 07:36:52;;;;;;;3.85;3.17;;;;;;;26.04;89.47;99397.50;4386520;32;20035;-75
2022/07/20 07:39:19;;;;;;;12.80;2.60;;;;;;;26.29;89.63;99430.59;4371196;32;20080;-73
2022/07/20 07:41:45;;;;;;;4.18;3.00;;;;;;;26.60;87.93;99462.34;4373188;32;20093;-72
2022/07/20 07:44:12;;;;;;;8.25;2.97;;;;;;;26.48;82.99;99435.53;4371880;32;20048;-74
2022/07/20 07:46:45;;;;;;;4.87;2.60;;;;;;;26.72;75.64;99469.81;4359471;32;20426;-74
2022/07/20 07:49:11;;;;;;;9.60;3.15;;;;;;;26.61;78.18;99442.66;4369865;32;20043;-77
2022/07/20 07:51:38;;;;;;;3.47;2.97;;;;;;;26.80;78.60;99477.97;4367294;32;20419;-72
2022/07/20 07:54:05;;;;;;;14.40;6.53;;;;;;;26.77;78.56;99459.34;4386536;32;20072;-72
2022/07/20 07:56:31;;;;;;;5.62;2.80;;;;;;;26.97;78.86;99476.13;4384296;32;20088;-73
2022/07/20 07:58:58;;;;;;;3.42;3.00;;;;;;;26.76;81.55;99438.41;4386927;32;20389;-72
2022/07/20 08:01:24;;;;;;;4.10;2.83;;;;;;;26.98;80.47;99461.13;4383374;32;20047;-72
2022/07/20 08:03:51;;;;;;;17.52;11.45;;;;;;;26.74;78.77;99440.72;4384307;32;20072;-72
2022/07/20 08:06:17;;;;;;;5.82;3.15;;;;;;;27.00;79.63;99458.84;4386174;32;20047;-72
2022/07/20 08:08:43;;;;;;;3.00;2.80;;;;;;;26.82;75.70;99437.00;4384711;32;20443;-73
2022/07/20 08:11:10;;;;;;;3.40;2.30;;;;;;;26.75;74.30;99430.47;4384416;32;20349;-73
2022/07/20 08:13:36;;;;;;;5.93;2.12;;;;;;;26.94;73.09;99460.25;4386809;32;20452;-72
2022/07/20 08:16:03;;;;;;;3.28;2.65;;;;;;;27.00;70.60;99470.69;4373109;32;20065;-73
2022/07/20 08:18:31;;;;;;;4.78;2.30;;;;;;;26.91;74.71;99466.47;4384987;32;20057;-72
2022/07/20 08:20:58;;;;;;;17.42;10.77;;;;;;;27.03;72.33;99469.19;4381901;32;20454;-72
2022/07/20 08:23:24;;;;;;;4.25;3.67;;;;;;;26.98;74.50;99434.31;4385097;32;20318;-72
2022/07/20 08:25:50;;;;;;;34.42;24.12;;;;;;;27.09;69.64;99459.50;4382719;32;20384;-72
2022/07/20 08:28:21;;;;;;;6.60;5.47;;;;;;;27.07;71.56;99453.50;4384927;32;20418;-72
2022/07/20 08:30:50;;;;;;;6.82;3.00;;;;;;;26.77;73.37;99423.44;4383665;32;20303;-74
2022/07/20 08:33:18;;;;;;;5.57;4.25;;;;;;;26.89;75.95;99427.34;4384304;32;20636;-73
2022/07/20 08:35:45;;;;;;;4.10;3.67;;;;;;;27.18;74.01;99470.41;4383790;32;20055;-73
2022/07/20 08:38:12;;;;;;;5.35;2.58;;;;;;;27.06;75.31;99429.81;4368609;32;20064;-73
2022/07/20 08:40:38;;;;;;;5.35;3.87;;;;;;;27.19;69.42;99459.00;4369643;32;20061;-73
2022/07/20 08:43:05;;;;;;;3.22;2.72;;;;;;;27.30;72.11;99472.31;4382074;32;20067;-73
2022/07/20 08:45:34;;;;;;;10.18;5.37;;;;;;;26.90;63.87;99426.16;4384968;32;20189;-72
2022/07/20 08:48:08;;;;;;;4.68;3.00;;;;;;;27.18;67.56;99438.03;4384988;32;20043;-73
2022/07/20 08:50:34;;;;;;;2.45;2.10;;;;;;;27.36;62.67;99476.47;4385412;32;20400;-73
2022/07/20 08:53:01;;;;;;;4.95;2.75;;;;;;;27.42;59.46;99461.25;4383587;32;20044;-75
2022/07/20 08:55:29;;;;;;;3.25;2.62;;;;;;;27.29;57.29;99437.56;4385978;32;21056;-72
2022/07/20 08:57:56;;;;;;;3.15;2.75;;;;;;;27.64;57.93;99467.37;4385940;32;20055;-73
2022/07/20 09:00:23;;;;;;;6.47;2.60;;;;;;;27.78;57.08;99465.00;4384716;32;20039;-74
2022/07/20 09:03:01;;;;;;;3.92;2.70;;;;;;;27.85;58.21;99465.16;4380783;32;20035;-74
2022/07/20 09:05:37;;;;;;;3.40;2.95;;;;;;;28.03;56.84;99462.06;4386446;32;20436;-73
2022/07/20 09:08:05;;;;;;;8.98;2.80;;;;;;;28.33;56.65;99447.78;4384850;32;20074;-73
2022/07/20 09:10:38;;;;;;;5.72;2.78;;;;;;;27.88;56.70;99386.19;4383674;32;20467;-73
2022/07/20 09:13:19;;;;;;;3.58;2.80;;;;;;;28.01;54.74;99417.34;4384706;32;20364;-73
2022/07/20 09:15:48;;;;;;;;;;;;;;;28.40;56.09;99457.06;4381960;32;20098;-74
2022/07/20 09:18:20;;;;;;;2.90;2.70;;;;;;;28.37;51.86;99451.44;4380899;32;19993;-73
2022/07/20 09:21:09;;;;;;;3.85;3.15;;;;;;;28.30;52.71;99423.59;4386120;32;20452;-73
2022/07/20 09:23:41;;;;;;;19.85;16.42;;;;;;;28.18;52.65;99407.91;4384075;32;20388;-73
2022/07/20 09:26:11;;;;;;;10.98;8.38;;;;;;;28.29;54.71;99419.19;4383556;32;20102;-73
2022/07/20 09:28:41;;;;;;;2.65;2.42;;;;;;;28.31;55.47;99448.16;4386079;32;20043;-73
2022/07/20 09:31:11;;;;;;;4.27;3.87;;;;;;;28.31;54.36;99437.06;4383964;32;20124;-72
2022/07/20 09:33:37;;;;;;;6.25;4.28;;;;;;;28.48;51.85;99440.59;4385491;32;20031;-73
2022/07/20 09:36:06;;;;;;;3.00;2.70;;;;;;;28.53;50.10;99432.00;4386586;32;20066;-73
2022/07/20 09:38:36;;;;;;;2.33;2.12;;;;;;;28.55;48.57;99418.62;4388815;32;20091;-72
2022/07/20 09:41:05;;;;;;;2.50;2.30;;;;;;;28.88;48.49;99426.50;4388119;32;20384;-73
2022/07/20 09:43:34;;;;;;;5.95;2.97;;;;;;;28.62;47.91;99404.94;4388559;32;20027;-72
2022/07/20 09:46:11;;;;;;;8.85;2.30;;;;;;;28.70;47.41;99403.16;4387211;32;20050;-73
2022/07/20 09:48:42;;;;;;;7.10;2.58;;;;;;;28.97;46.56;99429.84;4381607;32;20055;-74
2022/07/20 09:51:19;;;;;;;9.20;2.90;;;;;;;28.88;46.35;99420.97;4373639;32;20047;-74
2022/07/20 09:53:50;;;;;;;4.60;2.62;;;;;;;28.90;46.36;99407.53;4370537;32;20058;-74
2022/07/20 09:56:19;;;;;;;6.90;2.37;;;;;;;29.11;46.19;99423.78;4371055;32;20059;-74
2022/07/20 09:58:47;;;;;;;6.72;2.70;;;;;;;29.04;46.06;99395.12;4373547;32;20048;-73
2022/07/20 10:01:26;;;;;;;3.25;2.22;;;;;;;29.28;45.77;99432.84;4372922;32;20039;-73
2022/07/20 10:03:55;;;;;;;3.67;2.80;;;;;;;29.46;44.70;99424.91;4373669;32;20407;-72
2022/07/20 10:06:23;;;;;;;8.45;3.00;;;;;;;29.59;44.46;99429.09;4383826;32;20065;-72
2022/07/20 10:08:51;;;;;;;3.37;2.17;;;;;;;29.46;43.28;99395.19;4373744;32;20639;-73
2022/07/20 10:11:19;;;;;;;6.32;2.47;;;;;;;29.48;42.94;99394.81;4373503;32;20391;-74
2022/07/20 10:13:50;;;;;;;3.80;2.35;;;;;;;29.74;42.50;99409.94;4387367;32;20035;-73
2022/07/20 10:19:10;;;;;;;5.62;2.20;;;;;;;29.98;42.18;99423.47;4396674;32;20367;-73
2022/07/20 10:21:46;;;;;;;3.12;2.58;;;;;;;30.07;41.51;99424.00;4403301;32;20023;-73
2022/07/20 10:24:16;;;;;;;3.85;2.47;;;;;;;30.13;41.64;99434.81;4403316;32;20442;-73
2022/07/20 10:26:43;;;;;;;3.85;2.80;;;;;;;29.98;41.51;99409.59;4402238;32;20060;-74
2022/07/20 10:29:09;;;;;;;3.08;2.85;;;;;;;30.14;42.09;99434.44;4395461;32;20061;-73
2022/07/20 10:31:50;;;;;;;3.62;3.17;;;;;;;30.30;41.93;99414.84;4385488;32;20396;-74
2022/07/20 10:34:40;;;;;;;5.55;2.30;;;;;;;30.38;41.68;99436.03;4384748;32;20054;-73
2022/07/20 10:37:35;;;;;;;3.10;2.28;;;;;;;30.20;41.98;99393.25;4386646;32;20035;-74
2022/07/20 10:40:17;;;;;;;2.78;2.58;;;;;;;30.53;41.61;99427.91;4370570;32;20399;-73
2022/07/20 10:42:46;;;;;;;3.97;2.47;;;;;;;30.55;41.49;99431.09;4372183;32;20106;-74
2022/07/20 10:45:15;;;;;;;2.33;2.12;;;;;;;30.66;40.18;99432.06;4380992;32;20168;-73
2022/07/20 10:47:46;;;;;;;8.18;1.83;;;;;;;30.77;39.99;99444.13;4387523;32;20109;-72
2022/07/20 10:50:21;;;;;;;5.53;2.20;;;;;;;30.88;39.66;99437.91;4386262;32;20047;-73
2022/07/20 10:52:53;;;;;;;3.72;2.00;;;;;;;30.79;38.94;99408.44;4373848;32;20061;-72
2022/07/20 10:55:35;;;;;;;3.22;2.08;;;;;;;30.83;38.38;99390.97;4377539;32;20051;-73
2022/07/20 10:58:08;;;;;;;2.10;1.90;;;;;;;31.35;37.16;99435.72;4382737;32;20051;-74
2022/07/20 11:00:59;;;;;;;2.05;1.87;;;;;;;31.38;37.53;99432.97;4387579;32;20073;-74
2022/07/20 11:03:29;;;;;;;4.37;2.05;;;;;;;31.55;37.04;99444.72;4378089;32;20477;-74
2022/07/20 11:06:10;;;;;;;1.98;1.87;;;;;;;31.81;36.06;99443.78;4386702;32;20857;-73
2022/07/20 11:08:38;;;;;;;2.22;2.00;;;;;;;32.20;35.00;99437.78;4386256;32;20023;-74
2022/07/20 11:11:07;;;;;;;2.15;1.92;;;;;;;32.68;35.18;99422.97;4384602;32;20043;-74
2022/07/20 11:13:34;;;;;;;1.77;1.60;;;;;;;33.03;34.30;99416.78;4387068;32;20408;-72
2022/07/20 11:16:02;;;;;;;4.97;2.62;;;;;;;32.83;33.36;99424.63;4385853;32;20089;-72
2022/07/20 11:18:31;;;;;;;2.20;2.10;;;;;;;33.21;33.95;99430.81;4374289;32;20053;-72
2022/07/20 11:20:59;;;;;;;2.05;1.85;;;;;;;33.35;32.51;99432.03;4378820;32;20089;-73
2022/07/20 11:23:28;;;;;;;2.55;2.35;;;;;;;32.59;33.21;99398.22;4386392;32;20368;-71
2022/07/20 11:25:57;;;;;;;2.22;1.80;;;;;;;33.00;33.60;99400.00;4386331;32;20440;-72
2022/07/20 11:28:30;;;;;;;4.15;2.10;;;;;;;33.94;33.43;99424.19;4386511;32;20069;-72
2022/07/20 11:30:58;;;;;;;7.68;2.67;;;;;;;33.62;31.38;99402.59;4385362;32;20035;-72
2022/07/20 11:33:29;;;;;;;2.30;2.20;;;;;;;33.67;31.53;99410.56;4385511;32;20083;-72
2022/07/20 11:35:59;;;;;;;3.40;3.08;;;;;;;34.32;31.58;99421.78;4386954;32;20035;-72